sensor_id;sensor_type;location;lat;lon;timestamp;pressure;altitude;pressure_sealevel;temperature;humidity
54924;BME280;40825;52.270;20.984;2022-11-20T00:03:40;100469.90;;;-4.43;69.77
54924;BME280;40825;52.270;20.984;2022-11-20T00:06:08;100473.27;;;-4.50;69.81
54924;BME280;40825;52.270;20.984;2022-11-20T00:08:34;100468.44;;;-4.56;69.58
54924;BME280;40825;52.270;20.984;2022-11-20T00:11:07;100470.80;;;-4.58;69.71
54924;BME280;40825;52.270;20.984;2022-11-20T00:13:33;100468.38;;;-4.58;69.59
54924;BME280;40825;52.270;20.984;2022-11-20T00:16:01;100468.27;;;-4.59;69.74
54924;BME280;40825;52.270;20.984;2022-11-20T00:18:28;100467.27;;;-4.60;69.69
54924;BME280;40825;52.270;20.984;2022-11-20T00:20:53;100467.79;;;-4.60;69.92
54924;BME280;40825;52.270;20.984;2022-11-20T00:23:19;100466.52;;;-4.59;70.25
54924;BME280;40825;52.270;20.984;2022-11-20T00:25:45;100466.99;;;-4.59;70.22
54924;BME280;40825;52.270;20.984;2022-11-20T00:28:11;100470.11;;;-4.58;70.39
54924;BME280;40825;52.270;20.984;2022-11-20T00:30:36;100462.63;;;-4.55;70.23
54924;BME280;40825;52.270;20.984;2022-11-20T00:33:01;100459.71;;;-4.50;70.12
54924;BME280;40825;52.270;20.984;2022-11-20T00:35:27;100462.43;;;-4.43;70.13
54924;BME280;40825;52.270;20.984;2022-11-20T00:37:52;100468.19;;;-4.32;69.96
54924;BME280;40825;52.270;20.984;2022-11-20T00:40:18;100467.43;;;-4.19;69.97
54924;BME280;40825;52.270;20.984;2022-11-20T00:42:43;100464.27;;;-4.12;69.97
54924;BME280;40825;52.270;20.984;2022-11-20T00:45:08;100460.90;;;-4.09;70.01
54924;BME280;40825;52.270;20.984;2022-11-20T00:47:34;100457.73;;;-4.05;69.97
54924;BME280;40825;52.270;20.984;2022-11-20T00:49:59;100461.54;;;-4.02;69.91
54924;BME280;40825;52.270;20.984;2022-11-20T00:52:25;100458.95;;;-4.00;69.88
54924;BME280;40825;52.270;20.984;2022-11-20T00:54:50;100454.95;;;-3.96;69.91
54924;BME280;40825;52.270;20.984;2022-11-20T00:57:15;100449.64;;;-3.92;69.80
54924;BME280;40825;52.270;20.984;2022-11-20T00:59:41;100446.03;;;-3.84;69.51
54924;BME280;40825;52.270;20.984;2022-11-20T01:02:06;100441.94;;;-3.83;69.60
54924;BME280;40825;52.270;20.984;2022-11-20T01:04:31;100448.86;;;-3.82;69.54
54924;BME280;40825;52.270;20.984;2022-11-20T01:06:57;100446.69;;;-3.81;69.55
54924;BME280;40825;52.270;20.984;2022-11-20T01:09:22;100443.27;;;-3.79;69.55
54924;BME280;40825;52.270;20.984;2022-11-20T01:11:48;100439.65;;;-3.77;69.67
54924;BME280;40825;52.270;20.984;2022-11-20T01:14:17;100440.39;;;-3.75;69.58
54924;BME280;40825;52.270;20.984;2022-11-20T01:16:45;100435.45;;;-3.71;69.60
54924;BME280;40825;52.270;20.984;2022-11-20T01:19:15;100431.01;;;-3.70;69.46
54924;BME280;40825;52.270;20.984;2022-11-20T01:21:42;100426.66;;;-3.78;69.60
54924;BME280;40825;52.270;20.984;2022-11-20T01:24:11;100423.30;;;-3.85;69.61
54924;BME280;40825;52.270;20.984;2022-11-20T01:26:38;100419.68;;;-3.91;69.77
54924;BME280;40825;52.270;20.984;2022-11-20T01:29:05;100418.64;;;-3.94;69.64
54924;BME280;40825;52.270;20.984;2022-11-20T01:31:35;100417.19;;;-3.96;69.77
54924;BME280;40825;52.270;20.984;2022-11-20T01:34:05;100415.46;;;-3.94;69.93
54924;BME280;40825;52.270;20.984;2022-11-20T01:36:32;100416.46;;;-3.90;69.88
54924;BME280;40825;52.270;20.984;2022-11-20T01:39:00;100415.64;;;-3.96;70.09
54924;BME280;40825;52.270;20.984;2022-11-20T01:41:29;100414.43;;;-4.05;70.16
54924;BME280;40825;52.270;20.984;2022-11-20T01:44:16;100408.52;;;-4.10;70.35
54924;BME280;40825;52.270;20.984;2022-11-20T01:46:59;100409.01;;;-4.13;70.34
54924;BME280;40825;52.270;20.984;2022-11-20T01:52:05;100413.59;;;-4.14;70.36
54924;BME280;40825;52.270;20.984;2022-11-20T01:54:36;100421.19;;;-4.13;70.30
54924;BME280;40825;52.270;20.984;2022-11-20T01:57:08;100429.99;;;-4.15;70.11
54924;BME280;40825;52.270;20.984;2022-11-20T01:59:34;100427.41;;;-4.12;70.16
54924;BME280;40825;52.270;20.984;2022-11-20T02:02:33;100429.89;;;-4.16;70.11
54924;BME280;40825;52.270;20.984;2022-11-20T02:05:04;100436.31;;;-4.22;70.31
54924;BME280;40825;52.270;20.984;2022-11-20T02:07:31;100441.59;;;-4.23;70.33
54924;BME280;40825;52.270;20.984;2022-11-20T02:09:57;100439.31;;;-4.25;70.39
54924;BME280;40825;52.270;20.984;2022-11-20T02:12:23;100435.18;;;-4.29;70.35
54924;BME280;40825;52.270;20.984;2022-11-20T02:15:07;100430.09;;;-4.33;70.42
54924;BME280;40825;52.270;20.984;2022-11-20T02:17:33;100426.94;;;-4.36;70.42
54924;BME280;40825;52.270;20.984;2022-11-20T02:19:58;100423.75;;;-4.35;70.45
54924;BME280;40825;52.270;20.984;2022-11-20T02:22:35;100424.34;;;-4.34;70.33
54924;BME280;40825;52.270;20.984;2022-11-20T02:25:04;100422.97;;;-4.34;70.52
54924;BME280;40825;52.270;20.984;2022-11-20T02:27:32;100425.15;;;-4.30;70.47
54924;BME280;40825;52.270;20.984;2022-11-20T02:30:01;100419.31;;;-4.22;70.44
54924;BME280;40825;52.270;20.984;2022-11-20T02:32:29;100417.20;;;-4.16;70.45
54924;BME280;40825;52.270;20.984;2022-11-20T02:34:55;100410.40;;;-4.10;70.39
54924;BME280;40825;52.270;20.984;2022-11-20T02:37:22;100413.77;;;-4.05;70.56
54924;BME280;40825;52.270;20.984;2022-11-20T02:39:50;100410.15;;;-4.06;70.61
54924;BME280;40825;52.270;20.984;2022-11-20T02:42:17;100413.72;;;-4.07;70.88
54924;BME280;40825;52.270;20.984;2022-11-20T02:44:42;100413.44;;;-4.09;70.83
54924;BME280;40825;52.270;20.984;2022-11-20T02:47:08;100413.66;;;-4.09;70.97
54924;BME280;40825;52.270;20.984;2022-11-20T02:49:33;100410.52;;;-4.09;70.98
54924;BME280;40825;52.270;20.984;2022-11-20T02:51:59;100404.10;;;-4.09;70.93
54924;BME280;40825;52.270;20.984;2022-11-20T02:54:24;100402.23;;;-4.10;71.08
54924;BME280;40825;52.270;20.984;2022-11-20T02:56:50;100405.33;;;-4.12;71.21
54924;BME280;40825;52.270;20.984;2022-11-20T02:59:15;100406.19;;;-4.09;71.28
54924;BME280;40825;52.270;20.984;2022-11-20T03:01:42;100401.73;;;-4.08;71.10
54924;BME280;40825;52.270;20.984;2022-11-20T03:04:08;100400.82;;;-4.10;71.03
54924;BME280;40825;52.270;20.984;2022-11-20T03:06:34;100402.91;;;-4.18;71.20
54924;BME280;40825;52.270;20.984;2022-11-20T03:09:00;100412.14;;;-4.24;71.13
54924;BME280;40825;52.270;20.984;2022-11-20T03:11:25;100406.43;;;-4.30;71.09
54924;BME280;40825;52.270;20.984;2022-11-20T03:13:51;100407.45;;;-4.33;71.39
54924;BME280;40825;52.270;20.984;2022-11-20T03:16:19;100398.16;;;-4.34;71.34
54924;BME280;40825;52.270;20.984;2022-11-20T03:18:45;100398.38;;;-4.38;71.43
54924;BME280;40825;52.270;20.984;2022-11-20T03:21:11;100397.25;;;-4.39;71.21
54924;BME280;40825;52.270;20.984;2022-11-20T03:23:38;100397.80;;;-4.40;71.31
54924;BME280;40825;52.270;20.984;2022-11-20T03:26:18;100397.14;;;-4.38;71.33
54924;BME280;40825;52.270;20.984;2022-11-20T03:28:52;100396.48;;;-4.38;71.58
54924;BME280;40825;52.270;20.984;2022-11-20T03:31:20;100396.68;;;-4.38;71.73
54924;BME280;40825;52.270;20.984;2022-11-20T03:33:46;100395.88;;;-4.40;71.54
54924;BME280;40825;52.270;20.984;2022-11-20T03:36:14;100397.64;;;-4.40;71.65
54924;BME280;40825;52.270;20.984;2022-11-20T03:38:40;100396.41;;;-4.45;72.05
54924;BME280;40825;52.270;20.984;2022-11-20T03:41:11;100394.88;;;-4.52;72.03
54924;BME280;40825;52.270;20.984;2022-11-20T03:43:38;100396.61;;;-4.55;71.80
54924;BME280;40825;52.270;20.984;2022-11-20T03:46:04;100401.02;;;-4.56;72.28
54924;BME280;40825;52.270;20.984;2022-11-20T03:48:30;100394.05;;;-4.56;71.96
54924;BME280;40825;52.270;20.984;2022-11-20T03:51:15;100393.67;;;-4.61;72.21
54924;BME280;40825;52.270;20.984;2022-11-20T03:53:42;100390.03;;;-4.70;72.46
54924;BME280;40825;52.270;20.984;2022-11-20T03:56:09;100389.19;;;-4.76;72.87
54924;BME280;40825;52.270;20.984;2022-11-20T03:58:36;100391.10;;;-4.85;72.86
54924;BME280;40825;52.270;20.984;2022-11-20T04:01:13;100391.62;;;-4.91;72.42
54924;BME280;40825;52.270;20.984;2022-11-20T04:03:40;100392.08;;;-4.96;72.52
54924;BME280;40825;52.270;20.984;2022-11-20T04:06:14;100390.23;;;-4.97;72.55
54924;BME280;40825;52.270;20.984;2022-11-20T04:08:40;100390.87;;;-4.95;72.59
54924;BME280;40825;52.270;20.984;2022-11-20T04:11:20;100393.88;;;-4.97;72.51
54924;BME280;40825;52.270;20.984;2022-11-20T04:13:48;100394.48;;;-4.95;72.42
54924;BME280;40825;52.270;20.984;2022-11-20T04:16:15;100393.00;;;-4.90;72.50
54924;BME280;40825;52.270;20.984;2022-11-20T04:18:40;100393.79;;;-4.87;72.37
54924;BME280;40825;52.270;20.984;2022-11-20T04:21:06;100397.04;;;-4.85;72.60
54924;BME280;40825;52.270;20.984;2022-11-20T04:23:32;100391.20;;;-4.86;72.82
54924;BME280;40825;52.270;20.984;2022-11-20T04:26:08;100388.95;;;-4.90;72.80
54924;BME280;40825;52.270;20.984;2022-11-20T04:28:34;100386.73;;;-4.93;72.91
54924;BME280;40825;52.270;20.984;2022-11-20T04:31:11;100388.56;;;-4.95;72.92
54924;BME280;40825;52.270;20.984;2022-11-20T04:33:37;100384.90;;;-4.94;73.00
54924;BME280;40825;52.270;20.984;2022-11-20T04:36:09;100385.78;;;-4.98;73.09
54924;BME280;40825;52.270;20.984;2022-11-20T04:38:36;100380.27;;;-5.02;73.28
54924;BME280;40825;52.270;20.984;2022-11-20T04:41:05;100384.80;;;-4.99;73.09
54924;BME280;40825;52.270;20.984;2022-11-20T04:43:32;100386.38;;;-4.90;72.90
54924;BME280;40825;52.270;20.984;2022-11-20T04:45:58;100383.00;;;-4.92;73.04
54924;BME280;40825;52.270;20.984;2022-11-20T04:48:25;100382.16;;;-4.92;73.22
54924;BME280;40825;52.270;20.984;2022-11-20T04:50:51;100380.71;;;-4.94;73.27
54924;BME280;40825;52.270;20.984;2022-11-20T04:53:17;100379.70;;;-4.94;73.40
54924;BME280;40825;52.270;20.984;2022-11-20T04:55:43;100379.73;;;-4.95;73.33
54924;BME280;40825;52.270;20.984;2022-11-20T04:58:08;100379.20;;;-4.95;73.38
54924;BME280;40825;52.270;20.984;2022-11-20T05:00:34;100379.93;;;-4.95;73.57
54924;BME280;40825;52.270;20.984;2022-11-20T05:02:59;100378.60;;;-4.97;73.67
54924;BME280;40825;52.270;20.984;2022-11-20T05:05:25;100376.66;;;-4.96;73.94
54924;BME280;40825;52.270;20.984;2022-11-20T05:07:51;100376.88;;;-4.91;73.80
54924;BME280;40825;52.270;20.984;2022-11-20T05:10:16;100373.52;;;-4.87;73.73
54924;BME280;40825;52.270;20.984;2022-11-20T05:12:42;100372.21;;;-4.79;73.79
54924;BME280;40825;52.270;20.984;2022-11-20T05:15:07;100374.44;;;-4.79;73.61
54924;BME280;40825;52.270;20.984;2022-11-20T05:17:33;100372.42;;;-4.80;73.59
54924;BME280;40825;52.270;20.984;2022-11-20T05:19:58;100370.53;;;-4.80;73.66
54924;BME280;40825;52.270;20.984;2022-11-20T05:22:24;100373.19;;;-4.81;73.63
54924;BME280;40825;52.270;20.984;2022-11-20T05:24:49;100371.27;;;-4.84;73.78
54924;BME280;40825;52.270;20.984;2022-11-20T05:27:15;100366.84;;;-4.89;73.73
54924;BME280;40825;52.270;20.984;2022-11-20T05:29:40;100367.67;;;-4.91;73.75
54924;BME280;40825;52.270;20.984;2022-11-20T05:32:05;100362.13;;;-4.88;73.62
54924;BME280;40825;52.270;20.984;2022-11-20T05:34:34;100360.98;;;-4.86;73.54
54924;BME280;40825;52.270;20.984;2022-11-20T05:36:59;100363.45;;;-4.84;73.52
54924;BME280;40825;52.270;20.984;2022-11-20T05:39:25;100364.73;;;-4.79;73.61
54924;BME280;40825;52.270;20.984;2022-11-20T05:41:50;100360.00;;;-4.76;73.56
54924;BME280;40825;52.270;20.984;2022-11-20T05:44:35;100361.02;;;-4.69;73.69
54924;BME280;40825;52.270;20.984;2022-11-20T05:47:01;100359.86;;;-4.64;73.70
54924;BME280;40825;52.270;20.984;2022-11-20T05:49:26;100363.49;;;-4.64;73.64
54924;BME280;40825;52.270;20.984;2022-11-20T05:51:52;100357.10;;;-4.65;74.05
54924;BME280;40825;52.270;20.984;2022-11-20T05:54:17;100350.60;;;-4.67;74.01
54924;BME280;40825;52.270;20.984;2022-11-20T05:56:43;100352.11;;;-4.69;74.06
54924;BME280;40825;52.270;20.984;2022-11-20T05:59:08;100356.05;;;-4.71;74.18
54924;BME280;40825;52.270;20.984;2022-11-20T06:01:33;100356.21;;;-4.73;74.23
54924;BME280;40825;52.270;20.984;2022-11-20T06:04:01;100352.89;;;-4.79;74.49
54924;BME280;40825;52.270;20.984;2022-11-20T06:06:27;100346.20;;;-4.83;74.47
54924;BME280;40825;52.270;20.984;2022-11-20T06:08:52;100339.33;;;-4.81;74.30
54924;BME280;40825;52.270;20.984;2022-11-20T06:11:18;100338.84;;;-4.87;74.53
54924;BME280;40825;52.270;20.984;2022-11-20T06:13:44;100339.17;;;-4.93;74.44
54924;BME280;40825;52.270;20.984;2022-11-20T06:16:14;100333.91;;;-4.99;74.42
54924;BME280;40825;52.270;20.984;2022-11-20T06:18:40;100332.02;;;-5.02;74.46
54924;BME280;40825;52.270;20.984;2022-11-20T06:21:17;100332.67;;;-5.04;74.37
54924;BME280;40825;52.270;20.984;2022-11-20T06:23:43;100331.50;;;-5.02;74.31
54924;BME280;40825;52.270;20.984;2022-11-20T06:26:12;100328.39;;;-4.96;74.09
54924;BME280;40825;52.270;20.984;2022-11-20T06:28:38;100333.05;;;-4.92;74.30
54924;BME280;40825;52.270;20.984;2022-11-20T06:31:05;100333.53;;;-4.94;74.54
54924;BME280;40825;52.270;20.984;2022-11-20T06:33:30;100334.95;;;-4.95;74.66
54924;BME280;40825;52.270;20.984;2022-11-20T06:35:57;100331.80;;;-4.95;74.53
54924;BME280;40825;52.270;20.984;2022-11-20T06:38:26;100335.59;;;-4.94;74.59
54924;BME280;40825;52.270;20.984;2022-11-20T06:40:53;100335.67;;;-4.90;74.45
54924;BME280;40825;52.270;20.984;2022-11-20T06:43:19;100333.69;;;-4.80;74.37
54924;BME280;40825;52.270;20.984;2022-11-20T06:45:44;100334.27;;;-4.73;74.29
54924;BME280;40825;52.270;20.984;2022-11-20T06:48:10;100328.20;;;-4.66;74.42
54924;BME280;40825;52.270;20.984;2022-11-20T06:50:37;100333.36;;;-4.65;74.50
54924;BME280;40825;52.270;20.984;2022-11-20T06:53:04;100338.14;;;-4.64;74.57
54924;BME280;40825;52.270;20.984;2022-11-20T06:55:31;100336.65;;;-4.60;74.55
54924;BME280;40825;52.270;20.984;2022-11-20T06:57:57;100329.61;;;-4.56;74.56
54924;BME280;40825;52.270;20.984;2022-11-20T07:00:22;100327.77;;;-4.54;74.44
54924;BME280;40825;52.270;20.984;2022-11-20T07:02:48;100326.81;;;-4.52;74.44
54924;BME280;40825;52.270;20.984;2022-11-20T07:05:13;100327.54;;;-4.50;74.41
54924;BME280;40825;52.270;20.984;2022-11-20T07:07:38;100331.57;;;-4.45;74.47
54924;BME280;40825;52.270;20.984;2022-11-20T07:10:04;100328.02;;;-4.38;74.41
54924;BME280;40825;52.270;20.984;2022-11-20T07:12:30;100328.86;;;-4.35;74.34
54924;BME280;40825;52.270;20.984;2022-11-20T07:14:55;100325.61;;;-4.33;74.43
54924;BME280;40825;52.270;20.984;2022-11-20T07:17:21;100323.82;;;-4.29;74.48
54924;BME280;40825;52.270;20.984;2022-11-20T07:19:46;100318.98;;;-4.24;74.43
54924;BME280;40825;52.270;20.984;2022-11-20T07:22:12;100316.99;;;-4.20;74.43
54924;BME280;40825;52.270;20.984;2022-11-20T07:24:38;100316.34;;;-4.15;74.48
54924;BME280;40825;52.270;20.984;2022-11-20T07:27:04;100317.52;;;-4.12;74.31
54924;BME280;40825;52.270;20.984;2022-11-20T07:29:29;100317.89;;;-4.04;74.27
54924;BME280;40825;52.270;20.984;2022-11-20T07:31:55;100318.48;;;-3.94;74.31
54924;BME280;40825;52.270;20.984;2022-11-20T07:34:22;100320.73;;;-3.83;74.17
54924;BME280;40825;52.270;20.984;2022-11-20T07:36:47;100324.41;;;-3.73;74.21
54924;BME280;40825;52.270;20.984;2022-11-20T07:39:13;100321.00;;;-3.68;74.19
54924;BME280;40825;52.270;20.984;2022-11-20T07:41:38;100317.34;;;-3.63;74.20
54924;BME280;40825;52.270;20.984;2022-11-20T07:44:04;100317.36;;;-3.50;74.09
54924;BME280;40825;52.270;20.984;2022-11-20T07:46:29;100310.87;;;-3.33;74.14
54924;BME280;40825;52.270;20.984;2022-11-20T07:48:55;100310.63;;;-3.14;73.98
54924;BME280;40825;52.270;20.984;2022-11-20T07:51:20;100310.63;;;-3.00;73.20
54924;BME280;40825;52.270;20.984;2022-11-20T07:53:45;100310.83;;;-2.88;73.56
54924;BME280;40825;52.270;20.984;2022-11-20T07:56:11;100303.37;;;-2.76;73.12
54924;BME280;40825;52.270;20.984;2022-11-20T07:58:36;100308.31;;;-2.69;73.13
54924;BME280;40825;52.270;20.984;2022-11-20T08:01:06;100302.15;;;-2.61;73.33
54924;BME280;40825;52.270;20.984;2022-11-20T08:03:32;100299.80;;;-2.47;73.40
54924;BME280;40825;52.270;20.984;2022-11-20T08:05:59;100301.12;;;-2.41;73.05
54924;BME280;40825;52.270;20.984;2022-11-20T08:08:26;100305.48;;;-2.36;73.35
54924;BME280;40825;52.270;20.984;2022-11-20T08:10:51;100304.60;;;-2.28;73.16
54924;BME280;40825;52.270;20.984;2022-11-20T08:13:17;100309.86;;;-2.19;72.62
54924;BME280;40825;52.270;20.984;2022-11-20T08:16:01;100309.38;;;-2.20;72.78
54924;BME280;40825;52.270;20.984;2022-11-20T08:18:27;100310.64;;;-2.17;73.00
54924;BME280;40825;52.270;20.984;2022-11-20T08:20:52;100308.79;;;-2.09;72.86
54924;BME280;40825;52.270;20.984;2022-11-20T08:23:17;100302.94;;;-1.95;72.97
54924;BME280;40825;52.270;20.984;2022-11-20T08:25:43;100302.45;;;-1.79;72.71
54924;BME280;40825;52.270;20.984;2022-11-20T08:28:09;100301.65;;;-1.71;72.25
54924;BME280;40825;52.270;20.984;2022-11-20T08:30:35;100300.53;;;-1.67;71.75
54924;BME280;40825;52.270;20.984;2022-11-20T08:33:07;100300.21;;;-1.70;72.23
54924;BME280;40825;52.270;20.984;2022-11-20T08:35:35;100297.41;;;-1.65;72.03
54924;BME280;40825;52.270;20.984;2022-11-20T08:38:02;100299.41;;;-1.63;71.80
54924;BME280;40825;52.270;20.984;2022-11-20T08:40:28;100298.15;;;-1.56;72.38
54924;BME280;40825;52.270;20.984;2022-11-20T08:42:53;100298.31;;;-1.39;71.98
54924;BME280;40825;52.270;20.984;2022-11-20T08:45:19;100298.38;;;-1.21;72.30
54924;BME280;40825;52.270;20.984;2022-11-20T08:47:45;100298.80;;;-1.06;71.69
54924;BME280;40825;52.270;20.984;2022-11-20T08:50:12;100294.92;;;-0.87;72.13
54924;BME280;40825;52.270;20.984;2022-11-20T08:52:38;100284.13;;;-0.40;72.07
54924;BME280;40825;52.270;20.984;2022-11-20T08:55:05;100272.64;;;0.14;72.08
54924;BME280;40825;52.270;20.984;2022-11-20T08:57:32;100268.66;;;0.75;71.97
54924;BME280;40825;52.270;20.984;2022-11-20T08:59:58;100266.33;;;1.25;70.38
54924;BME280;40825;52.270;20.984;2022-11-20T09:02:23;100264.77;;;1.67;70.01
54924;BME280;40825;52.270;20.984;2022-11-20T09:04:49;100259.39;;;2.04;69.68
54924;BME280;40825;52.270;20.984;2022-11-20T09:07:14;100261.47;;;2.42;69.74
54924;BME280;40825;52.270;20.984;2022-11-20T09:09:39;100262.88;;;2.73;68.69
54924;BME280;40825;52.270;20.984;2022-11-20T09:12:05;100261.15;;;3.22;69.74
54924;BME280;40825;52.270;20.984;2022-11-20T09:14:30;100261.54;;;3.69;69.86
54924;BME280;40825;52.270;20.984;2022-11-20T09:16:56;100255.54;;;4.03;68.88
54924;BME280;40825;52.270;20.984;2022-11-20T09:19:23;100256.66;;;4.09;68.91
54924;BME280;40825;52.270;20.984;2022-11-20T09:21:50;100253.98;;;4.08;69.33
54924;BME280;40825;52.270;20.984;2022-11-20T09:24:15;100254.20;;;4.00;67.79
54924;BME280;40825;52.270;20.984;2022-11-20T09:26:41;100253.91;;;3.75;67.41
54924;BME280;40825;52.270;20.984;2022-11-20T09:29:06;100257.55;;;3.48;67.00
54924;BME280;40825;52.270;20.984;2022-11-20T09:31:32;100253.49;;;3.30;67.67
54924;BME280;40825;52.270;20.984;2022-11-20T09:33:57;100253.92;;;3.16;66.48
54924;BME280;40825;52.270;20.984;2022-11-20T09:36:23;100254.90;;;2.96;66.23
54924;BME280;40825;52.270;20.984;2022-11-20T09:38:48;100250.39;;;2.69;64.97
54924;BME280;40825;52.270;20.984;2022-11-20T09:45:00;100240.37;;;2.23;65.60
54924;BME280;40825;52.270;20.984;2022-11-20T09:55:35;100246.41;;;1.63;64.92
54924;BME280;40825;52.270;20.984;2022-11-20T09:58:01;100249.16;;;1.37;64.68
54924;BME280;40825;52.270;20.984;2022-11-20T10:00:29;100242.24;;;0.99;63.53
54924;BME280;40825;52.270;20.984;2022-11-20T10:03:29;100241.14;;;0.64;64.07
54924;BME280;40825;52.270;20.984;2022-11-20T10:06:02;100237.54;;;0.43;64.99
54924;BME280;40825;52.270;20.984;2022-11-20T10:25:51;100222.93;;;-0.25;65.21
54924;BME280;40825;52.270;20.984;2022-11-20T10:28:39;100220.65;;;-0.25;65.21
54924;BME280;40825;52.270;20.984;2022-11-20T10:31:14;100211.85;;;-0.24;65.34
54924;BME280;40825;52.270;20.984;2022-11-20T10:33:45;100211.17;;;-0.20;65.28
54924;BME280;40825;52.270;20.984;2022-11-20T10:36:26;100207.30;;;-0.20;65.39
54924;BME280;40825;52.270;20.984;2022-11-20T10:39:05;100203.02;;;-0.17;65.55
54924;BME280;40825;52.270;20.984;2022-11-20T10:41:40;100201.95;;;-0.14;65.49
54924;BME280;40825;52.270;20.984;2022-11-20T10:44:15;100204.89;;;-0.18;65.60
54924;BME280;40825;52.270;20.984;2022-11-20T10:47:01;100199.13;;;-0.18;65.65
54924;BME280;40825;52.270;20.984;2022-11-20T10:49:27;100198.55;;;-0.18;65.66
54924;BME280;40825;52.270;20.984;2022-11-20T10:54:32;100200.34;;;-0.07;65.86
54924;BME280;40825;52.270;20.984;2022-11-20T10:57:13;100203.23;;;-0.02;65.75
54924;BME280;40825;52.270;20.984;2022-11-20T11:02:21;100209.00;;;0.02;65.90
54924;BME280;40825;52.270;20.984;2022-11-20T11:04:50;100203.17;;;0.11;65.94
54924;BME280;40825;52.270;20.984;2022-11-20T11:07:48;100199.29;;;0.20;65.86
54924;BME280;40825;52.270;20.984;2022-11-20T11:10:18;100195.94;;;0.25;65.55
54924;BME280;40825;52.270;20.984;2022-11-20T11:12:47;100200.06;;;0.30;65.61
54924;BME280;40825;52.270;20.984;2022-11-20T11:15:35;100194.80;;;0.35;65.51
54924;BME280;40825;52.270;20.984;2022-11-20T11:18:02;100187.94;;;0.31;65.65
54924;BME280;40825;52.270;20.984;2022-11-20T11:20:28;100187.95;;;0.29;65.54
54924;BME280;40825;52.270;20.984;2022-11-20T11:22:55;100187.55;;;0.29;65.66
54924;BME280;40825;52.270;20.984;2022-11-20T11:27:50;100186.59;;;0.22;65.53
54924;BME280;40825;52.270;20.984;2022-11-20T11:30:18;100179.79;;;0.21;65.64
54924;BME280;40825;52.270;20.984;2022-11-20T11:32:44;100180.48;;;0.23;65.91
54924;BME280;40825;52.270;20.984;2022-11-20T11:35:20;100183.13;;;0.30;65.81
54924;BME280;40825;52.270;20.984;2022-11-20T11:37:46;100185.33;;;0.35;65.90
54924;BME280;40825;52.270;20.984;2022-11-20T11:40:14;100182.95;;;0.40;65.64
54924;BME280;40825;52.270;20.984;2022-11-20T11:42:44;100182.19;;;0.41;65.60
54924;BME280;40825;52.270;20.984;2022-11-20T11:45:14;100174.91;;;0.40;65.51
54924;BME280;40825;52.270;20.984;2022-11-20T11:50:23;100167.27;;;0.33;65.57
54924;BME280;40825;52.270;20.984;2022-11-20T11:55:46;100163.27;;;0.35;65.71
54924;BME280;40825;52.270;20.984;2022-11-20T11:58:57;100161.20;;;0.41;65.78
54924;BME280;40825;52.270;20.984;2022-11-20T12:03:38;100158.51;;;0.54;65.56
54924;BME280;40825;52.270;20.984;2022-11-20T12:06:12;100160.09;;;0.60;64.92
54924;BME280;40825;52.270;20.984;2022-11-20T12:11:30;100149.49;;;0.48;65.30
54924;BME280;40825;52.270;20.984;2022-11-20T12:14:19;100143.41;;;0.46;65.18
54924;BME280;40825;52.270;20.984;2022-11-20T12:16:50;100144.52;;;0.45;65.39
54924;BME280;40825;52.270;20.984;2022-11-20T12:19:16;100139.28;;;0.47;65.29
54924;BME280;40825;52.270;20.984;2022-11-20T12:22:16;100136.10;;;0.46;64.93
54924;BME280;40825;52.270;20.984;2022-11-20T12:30:12;100131.60;;;0.41;65.27
54924;BME280;40825;52.270;20.984;2022-11-20T12:33:27;100131.48;;;0.44;65.35
54924;BME280;40825;52.270;20.984;2022-11-20T12:36:22;100128.52;;;0.44;64.99
54924;BME280;40825;52.270;20.984;2022-11-20T12:59:05;100105.63;;;0.68;65.49
54924;BME280;40825;52.270;20.984;2022-11-20T13:01:47;100099.55;;;0.75;65.26
54924;BME280;40825;52.270;20.984;2022-11-20T13:04:39;100097.36;;;0.79;65.43
54924;BME280;40825;52.270;20.984;2022-11-20T13:07:13;100093.55;;;0.85;65.61
54924;BME280;40825;52.270;20.984;2022-11-20T13:09:48;100088.17;;;0.90;65.68
54924;BME280;40825;52.270;20.984;2022-11-20T13:12:25;100084.34;;;0.92;65.85
54924;BME280;40825;52.270;20.984;2022-11-20T13:18:00;100086.74;;;0.88;65.90
54924;BME280;40825;52.270;20.984;2022-11-20T13:20:26;100079.59;;;0.86;65.85
54924;BME280;40825;52.270;20.984;2022-11-20T13:22:54;100078.02;;;0.81;65.85
54924;BME280;40825;52.270;20.984;2022-11-20T13:25:31;100073.87;;;0.79;65.89
54924;BME280;40825;52.270;20.984;2022-11-20T13:28:04;100072.48;;;0.75;66.04
54924;BME280;40825;52.270;20.984;2022-11-20T13:30:30;100070.48;;;0.71;66.27
54924;BME280;40825;52.270;20.984;2022-11-20T13:33:22;100066.88;;;0.65;66.42
54924;BME280;40825;52.270;20.984;2022-11-20T13:35:57;100070.68;;;0.61;66.45
54924;BME280;40825;52.270;20.984;2022-11-20T13:38:23;100071.78;;;0.57;66.53
54924;BME280;40825;52.270;20.984;2022-11-20T13:41:00;100071.50;;;0.50;66.86
54924;BME280;40825;52.270;20.984;2022-11-20T13:43:49;100067.14;;;0.37;66.89
54924;BME280;40825;52.270;20.984;2022-11-20T13:46:14;100067.98;;;0.29;66.89
54924;BME280;40825;52.270;20.984;2022-11-20T13:48:45;100069.94;;;0.25;66.86
54924;BME280;40825;52.270;20.984;2022-11-20T13:51:33;100064.86;;;0.18;67.17
54924;BME280;40825;52.270;20.984;2022-11-20T14:00:24;100056.35;;;0.05;67.37
54924;BME280;40825;52.270;20.984;2022-11-20T14:05:35;100047.66;;;-0.14;67.61
54924;BME280;40825;52.270;20.984;2022-11-20T14:08:03;100054.13;;;-0.20;67.81
54924;BME280;40825;52.270;20.984;2022-11-20T14:10:30;100051.41;;;-0.25;67.84
54924;BME280;40825;52.270;20.984;2022-11-20T14:12:55;100050.39;;;-0.31;67.68
54924;BME280;40825;52.270;20.984;2022-11-20T14:15:29;100046.23;;;-0.35;68.32
54924;BME280;40825;52.270;20.984;2022-11-20T14:17:55;100045.64;;;-0.38;68.32
54924;BME280;40825;52.270;20.984;2022-11-20T14:20:24;100045.70;;;-0.39;68.29
54924;BME280;40825;52.270;20.984;2022-11-20T14:22:52;100045.39;;;-0.41;68.61